sensor_id;sensor_type;location;lat;lon;timestamp;pressure;altitude;pressure_sealevel;temperature;humidity
73457;BME280;61691;53.072;6.582;2022-12-07T14:43:15;101266.41;;;18.73;44.93
73457;BME280;61691;53.072;6.582;2022-12-07T14:45:41;101268.91;;;18.74;45.04
73457;BME280;61691;53.072;6.582;2022-12-07T14:48:11;101278.19;;;18.72;45.32
73457;BME280;61691;53.072;6.582;2022-12-07T14:50:38;101274.66;;;18.71;45.04
73457;BME280;61691;53.072;6.582;2022-12-07T14:53:17;101273.81;;;18.71;45.29
73457;BME280;61691;53.072;6.582;2022-12-07T14:55:43;101271.47;;;18.68;45.40
73457;BME280;61691;53.072;6.582;2022-12-07T14:58:18;101271.31;;;18.69;45.45
73457;BME280;61691;53.072;6.582;2022-12-07T15:00:44;101263.25;;;18.69;45.22
73457;BME280;61691;53.072;6.582;2022-12-07T15:03:10;101262.22;;;18.70;44.97
73457;BME280;61691;53.072;6.582;2022-12-07T15:05:36;101262.22;;;18.70;45.17
73457;BME280;61691;53.072;6.582;2022-12-07T15:08:02;101259.56;;;18.70;45.26
73457;BME280;61691;53.072;6.582;2022-12-07T15:10:32;101257.88;;;18.69;44.96
73457;BME280;61691;53.072;6.582;2022-12-07T15:12:58;101247.81;;;18.71;45.29
73457;BME280;61691;53.072;6.582;2022-12-07T15:15:42;101259.72;;;18.69;45.19
73457;BME280;61691;53.072;6.582;2022-12-07T15:18:08;101255.84;;;18.71;45.52
73457;BME280;61691;53.072;6.582;2022-12-07T15:20:33;101248.81;;;18.70;44.96
73457;BME280;61691;53.072;6.582;2022-12-07T15:22:59;101243.72;;;18.75;45.17
73457;BME280;61691;53.072;6.582;2022-12-07T15:26:10;101245.41;;;18.76;45.02
73457;BME280;61691;53.072;6.582;2022-12-07T15:28:54;101236.34;;;18.77;45.36
73457;BME280;61691;53.072;6.582;2022-12-07T15:31:38;101237.19;;;18.78;44.86
73457;BME280;61691;53.072;6.582;2022-12-07T15:36:33;101222.25;;;18.75;44.90
73457;BME280;61691;53.072;6.582;2022-12-07T15:39:17;101228.56;;;18.82;45.36
73457;BME280;61691;53.072;6.582;2022-12-07T15:42:01;101221.00;;;18.86;44.95
73457;BME280;61691;53.072;6.582;2022-12-07T15:45:23;101215.81;;;18.84;44.92
73457;BME280;61691;53.072;6.582;2022-12-07T15:48:08;101220.81;;;18.87;45.16
73457;BME280;61691;53.072;6.582;2022-12-07T15:51:14;101217.16;;;18.80;45.01
73457;BME280;61691;53.072;6.582;2022-12-07T15:54:05;101205.00;;;18.70;44.73
73457;BME280;61691;53.072;6.582;2022-12-07T15:56:51;101203.88;;;18.64;44.60
73457;BME280;61691;53.072;6.582;2022-12-07T15:59:36;101200.53;;;18.62;44.87
73457;BME280;61691;53.072;6.582;2022-12-07T16:02:23;101217.81;;;18.60;45.20
73457;BME280;61691;53.072;6.582;2022-12-07T16:05:09;101200.88;;;18.59;45.17
73457;BME280;61691;53.072;6.582;2022-12-07T16:07:54;101192.13;;;18.57;44.65
73457;BME280;61691;53.072;6.582;2022-12-07T16:10:40;101194.03;;;18.57;45.06
73457;BME280;61691;53.072;6.582;2022-12-07T16:13:28;101189.78;;;18.54;44.95
73457;BME280;61691;53.072;6.582;2022-12-07T16:16:15;101191.66;;;18.53;44.97
73457;BME280;61691;53.072;6.582;2022-12-07T16:19:01;101187.47;;;18.51;45.12
73457;BME280;61691;53.072;6.582;2022-12-07T16:21:47;101189.50;;;18.49;44.65
73457;BME280;61691;53.072;6.582;2022-12-07T16:24:33;101194.03;;;18.48;45.22
73457;BME280;61691;53.072;6.582;2022-12-07T16:27:18;101191.53;;;18.47;44.73
73457;BME280;61691;53.072;6.582;2022-12-07T16:30:04;101192.53;;;18.46;44.61
73457;BME280;61691;53.072;6.582;2022-12-07T16:32:49;101190.19;;;18.43;45.16
73457;BME280;61691;53.072;6.582;2022-12-07T16:35:38;101183.97;;;18.42;44.82
73457;BME280;61691;53.072;6.582;2022-12-07T16:38:25;101184.19;;;18.41;44.71
73457;BME280;61691;53.072;6.582;2022-12-07T16:41:11;101170.94;;;18.39;44.54
73457;BME280;61691;53.072;6.582;2022-12-07T16:43:56;101181.84;;;18.38;44.49
73457;BME280;61691;53.072;6.582;2022-12-07T16:46:42;101188.22;;;18.37;44.67
73457;BME280;61691;53.072;6.582;2022-12-07T16:49:28;101182.00;;;18.36;44.65
73457;BME280;61691;53.072;6.582;2022-12-07T16:52:14;101176.19;;;18.33;44.98
73457;BME280;61691;53.072;6.582;2022-12-07T16:55:04;101181.53;;;18.33;44.73
73457;BME280;61691;53.072;6.582;2022-12-07T16:57:50;101176.34;;;18.31;44.96
73457;BME280;61691;53.072;6.582;2022-12-07T17:00:36;101172.00;;;18.30;44.96
73457;BME280;61691;53.072;6.582;2022-12-07T17:03:21;101175.84;;;18.28;44.82
73457;BME280;61691;53.072;6.582;2022-12-07T17:06:15;101177.91;;;18.26;44.57
73457;BME280;61691;53.072;6.582;2022-12-07T17:09:01;101182.75;;;18.22;44.68
73457;BME280;61691;53.072;6.582;2022-12-07T17:11:46;101177.91;;;18.26;44.57
73457;BME280;61691;53.072;6.582;2022-12-07T17:14:32;101186.97;;;18.25;44.82
73457;BME280;61691;53.072;6.582;2022-12-07T17:17:36;101167.34;;;18.24;44.71
73457;BME280;61691;53.072;6.582;2022-12-07T17:20:23;101158.44;;;18.24;44.94
73457;BME280;61691;53.072;6.582;2022-12-07T17:23:09;101142.34;;;18.24;44.54
73457;BME280;61691;53.072;6.582;2022-12-07T17:25:54;101146.03;;;18.23;44.76
73457;BME280;61691;53.072;6.582;2022-12-07T17:28:40;101142.69;;;18.21;44.90
73457;BME280;61691;53.072;6.582;2022-12-07T17:31:25;101135.31;;;18.23;44.42
73457;BME280;61691;53.072;6.582;2022-12-07T17:34:12;101130.28;;;18.19;44.81
73457;BME280;61691;53.072;6.582;2022-12-07T17:36:58;101122.88;;;18.22;45.07
73457;BME280;61691;53.072;6.582;2022-12-07T17:39:44;101133.63;;;18.22;44.92
73457;BME280;61691;53.072;6.582;2022-12-07T17:42:29;101130.94;;;18.22;44.57
73457;BME280;61691;53.072;6.582;2022-12-07T17:45:20;101132.78;;;18.21;44.79
73457;BME280;61691;53.072;6.582;2022-12-07T17:48:05;101130.28;;;18.19;44.84
73457;BME280;61691;53.072;6.582;2022-12-07T17:50:51;101129.25;;;18.21;44.85
73457;BME280;61691;53.072;6.582;2022-12-07T17:53:55;101140.00;;;18.21;45.03
73457;BME280;61691;53.072;6.582;2022-12-07T17:56:41;101140.38;;;18.17;45.25
73457;BME280;61691;53.072;6.582;2022-12-07T17:59:27;101136.00;;;18.16;45.14
73457;BME280;61691;53.072;6.582;2022-12-07T18:02:12;101141.38;;;18.16;45.15
73457;BME280;61691;53.072;6.582;2022-12-07T18:04:58;101131.66;;;18.15;45.21
73457;BME280;61691;53.072;6.582;2022-12-07T18:07:43;101127.66;;;18.11;45.20
73457;BME280;61691;53.072;6.582;2022-12-07T18:10:28;101128.31;;;18.13;45.19
73457;BME280;61691;53.072;6.582;2022-12-07T18:13:14;101129.13;;;18.14;45.01
73457;BME280;61691;53.072;6.582;2022-12-07T18:16:21;101120.25;;;18.13;45.08
73457;BME280;61691;53.072;6.582;2022-12-07T18:19:09;101116.09;;;18.11;45.08
73457;BME280;61691;53.072;6.582;2022-12-07T18:21:57;101109.91;;;18.10;45.47
73457;BME280;61691;53.072;6.582;2022-12-07T18:24:43;101095.63;;;18.10;45.06
73457;BME280;61691;53.072;6.582;2022-12-07T18:27:28;101094.81;;;18.09;45.11
73457;BME280;61691;53.072;6.582;2022-12-07T18:30:14;101081.72;;;18.06;45.52
73457;BME280;61691;53.072;6.582;2022-12-07T18:32:59;101071.66;;;18.08;45.38
73457;BME280;61691;53.072;6.582;2022-12-07T18:35:46;101072.50;;;18.09;45.12
73457;BME280;61691;53.072;6.582;2022-12-07T18:38:31;101067.31;;;18.07;45.12
73457;BME280;61691;53.072;6.582;2022-12-07T18:41:17;101063.97;;;18.05;45.62
73457;BME280;61691;53.072;6.582;2022-12-07T18:44:03;101064.63;;;18.07;45.49
73457;BME280;61691;53.072;6.582;2022-12-07T18:46:49;101060.28;;;18.06;45.49
73457;BME280;61691;53.072;6.582;2022-12-07T18:49:36;101053.22;;;18.05;45.40
73457;BME280;61691;53.072;6.582;2022-12-07T18:52:21;101057.97;;;18.03;45.69
73457;BME280;61691;53.072;6.582;2022-12-07T18:55:06;101054.44;;;18.03;45.43
73457;BME280;61691;53.072;6.582;2022-12-07T18:57:53;101055.28;;;18.03;45.46
73457;BME280;61691;53.072;6.582;2022-12-07T19:00:39;101057.97;;;18.03;45.75
73457;BME280;61691;53.072;6.582;2022-12-07T19:03:24;101054.78;;;18.00;45.88
73457;BME280;61691;53.072;6.582;2022-12-07T19:06:17;101053.59;;;18.02;46.12
73457;BME280;61691;53.072;6.582;2022-12-07T19:09:03;101046.56;;;18.01;45.79
73457;BME280;61691;53.072;6.582;2022-12-07T19:11:48;101050.25;;;18.00;46.19
73457;BME280;61691;53.072;6.582;2022-12-07T19:14:35;101048.97;;;17.96;46.14
73457;BME280;61691;53.072;6.582;2022-12-07T19:17:21;101055.63;;;18.00;46.16
73457;BME280;61691;53.072;6.582;2022-12-07T19:20:11;101055.63;;;18.00;46.18
73457;BME280;61691;53.072;6.582;2022-12-07T19:22:57;101049.59;;;17.98;46.33
73457;BME280;61691;53.072;6.582;2022-12-07T19:25:43;101046.91;;;17.98;46.26
73457;BME280;61691;53.072;6.582;2022-12-07T19:28:28;101053.28;;;17.97;46.07
73457;BME280;61691;53.072;6.582;2022-12-07T19:31:14;101052.28;;;17.98;46.30
73457;BME280;61691;53.072;6.582;2022-12-07T19:33:59;101050.59;;;17.97;46.13
73457;BME280;61691;53.072;6.582;2022-12-07T19:36:45;101043.59;;;17.96;46.49
73457;BME280;61691;53.072;6.582;2022-12-07T19:39:31;101044.41;;;17.97;46.55
73457;BME280;61691;53.072;6.582;2022-12-07T19:42:16;101036.56;;;17.95;46.76
73457;BME280;61691;53.072;6.582;2022-12-07T19:45:02;101033.88;;;17.95;46.61
73457;BME280;61691;53.072;6.582;2022-12-07T19:47:48;101027.00;;;17.93;46.60
73457;BME280;61691;53.072;6.582;2022-12-07T19:50:33;101008.78;;;17.88;46.86
73457;BME280;61691;53.072;6.582;2022-12-07T19:53:19;101016.09;;;17.94;46.65
73457;BME280;61691;53.072;6.582;2022-12-07T19:56:04;101011.09;;;17.91;46.94
73457;BME280;61691;53.072;6.582;2022-12-07T19:58:50;101011.75;;;17.93;46.90
73457;BME280;61691;53.072;6.582;2022-12-07T20:01:35;101001.03;;;17.93;46.51
73457;BME280;61691;53.072;6.582;2022-12-07T20:04:24;101001.03;;;17.93;46.48
73457;BME280;61691;53.072;6.582;2022-12-07T20:07:10;101000.34;;;17.91;46.91
73457;BME280;61691;53.072;6.582;2022-12-07T20:09:55;100999.34;;;17.92;46.58
73457;BME280;61691;53.072;6.582;2022-12-07T20:12:40;100995.81;;;17.92;47.12
73457;BME280;61691;53.072;6.582;2022-12-07T20:15:52;100994.34;;;17.89;47.08
73457;BME280;61691;53.072;6.582;2022-12-07T20:18:58;100990.63;;;17.90;46.73
73457;BME280;61691;53.072;6.582;2022-12-07T20:21:45;100990.63;;;17.90;47.04
73457;BME280;61691;53.072;6.582;2022-12-07T20:24:30;100987.13;;;17.90;47.03
73457;BME280;61691;53.072;6.582;2022-12-07T20:27:18;100977.44;;;17.89;46.94
73457;BME280;61691;53.072;6.582;2022-12-07T20:30:04;100972.06;;;17.89;47.25
73457;BME280;61691;53.072;6.582;2022-12-07T20:32:49;100974.53;;;17.90;47.15
73457;BME280;61691;53.072;6.582;2022-12-07T20:35:35;100964.53;;;17.84;47.01
73457;BME280;61691;53.072;6.582;2022-12-07T20:38:20;100965.03;;;17.88;47.37
73457;BME280;61691;53.072;6.582;2022-12-07T20:41:07;100961.50;;;17.87;47.39
73457;BME280;61691;53.072;6.582;2022-12-07T20:44:14;100931.78;;;17.74;47.41
73457;BME280;61691;53.072;6.582;2022-12-07T20:47:00;100950.78;;;17.87;47.06
73457;BME280;61691;53.072;6.582;2022-12-07T20:49:45;100943.75;;;17.86;47.48
73457;BME280;61691;53.072;6.582;2022-12-07T20:52:30;100949.78;;;17.88;47.54
73457;BME280;61691;53.072;6.582;2022-12-07T20:55:16;100937.38;;;17.87;47.28
73457;BME280;61691;53.072;6.582;2022-12-07T20:58:01;100938.38;;;17.86;47.65
73457;BME280;61691;53.072;6.582;2022-12-07T21:00:46;100933.00;;;17.86;47.48
73457;BME280;61691;53.072;6.582;2022-12-07T21:03:32;100936.53;;;17.87;47.65
73457;BME280;61691;53.072;6.582;2022-12-07T21:06:17;100932.34;;;17.84;47.46
73457;BME280;61691;53.072;6.582;2022-12-07T21:09:03;100936.72;;;17.85;47.27
73457;BME280;61691;53.072;6.582;2022-12-07T21:11:48;100939.38;;;17.85;47.37
73457;BME280;61691;53.072;6.582;2022-12-07T21:14:33;100921.78;;;17.83;47.32
73457;BME280;61691;53.072;6.582;2022-12-07T21:17:19;100927.81;;;17.85;47.66
73457;BME280;61691;53.072;6.582;2022-12-07T21:20:05;100922.84;;;17.82;47.80
73457;BME280;61691;53.072;6.582;2022-12-07T21:22:51;100923.66;;;17.82;47.56
73457;BME280;61691;53.072;6.582;2022-12-07T21:25:36;100929.00;;;17.82;47.85
73457;BME280;61691;53.072;6.582;2022-12-07T21:28:22;100922.84;;;17.82;47.47
73457;BME280;61691;53.072;6.582;2022-12-07T21:31:07;100925.69;;;17.80;47.82
73457;BME280;61691;53.072;6.582;2022-12-07T21:34:00;100911.28;;;17.81;47.49
73457;BME280;61691;53.072;6.582;2022-12-07T21:36:45;100910.44;;;17.81;47.99
73457;BME280;61691;53.072;6.582;2022-12-07T21:39:31;100892.19;;;17.76;47.67
73457;BME280;61691;53.072;6.582;2022-12-07T21:42:16;100904.25;;;17.80;47.42
73457;BME280;61691;53.072;6.582;2022-12-07T21:45:02;100899.22;;;17.77;47.62
73457;BME280;61691;53.072;6.582;2022-12-07T21:47:48;100903.41;;;17.79;47.49
73457;BME280;61691;53.072;6.582;2022-12-07T21:50:33;100892.03;;;17.77;47.59
73457;BME280;61691;53.072;6.582;2022-12-07T21:53:21;100891.34;;;17.75;47.81
73457;BME280;61691;53.072;6.582;2022-12-07T21:56:16;100882.84;;;17.72;47.69
73457;BME280;61691;53.072;6.582;2022-12-07T21:59:06;100880.53;;;17.69;47.98
73457;BME280;61691;53.072;6.582;2022-12-07T22:01:52;100871.81;;;17.67;47.56
73457;BME280;61691;53.072;6.582;2022-12-07T22:04:37;100873.88;;;17.65;47.58
73457;BME280;61691;53.072;6.582;2022-12-07T22:07:23;100867.00;;;17.62;47.70
73457;BME280;61691;53.072;6.582;2022-12-07T22:10:08;100864.47;;;17.61;47.69
73457;BME280;61691;53.072;6.582;2022-12-07T22:12:58;100850.94;;;17.54;47.63
73457;BME280;61691;53.072;6.582;2022-12-07T22:15:43;100860.50;;;17.57;48.01
73457;BME280;61691;53.072;6.582;2022-12-07T22:18:29;100857.16;;;17.55;47.60
73457;BME280;61691;53.072;6.582;2022-12-07T22:21:14;100851.13;;;17.53;48.07
73457;BME280;61691;53.072;6.582;2022-12-07T22:24:00;100856.69;;;17.51;48.08
73457;BME280;61691;53.072;6.582;2022-12-07T22:26:45;100856.53;;;17.45;47.77
73457;BME280;61691;53.072;6.582;2022-12-07T22:29:31;100855.53;;;17.46;47.71
73457;BME280;61691;53.072;6.582;2022-12-07T22:32:16;100854.06;;;17.43;48.25
73457;BME280;61691;53.072;6.582;2022-12-07T22:35:21;100854.41;;;17.40;47.78
73457;BME280;61691;53.072;6.582;2022-12-07T22:38:07;100856.41;;;17.38;48.24
73457;BME280;61691;53.072;6.582;2022-12-07T22:40:58;100848.59;;;17.36;48.22
73457;BME280;61691;53.072;6.582;2022-12-07T22:43:44;100847.91;;;17.34;48.03
73457;BME280;61691;53.072;6.582;2022-12-07T22:46:30;100847.25;;;17.32;47.67
73457;BME280;61691;53.072;6.582;2022-12-07T22:49:15;100850.09;;;17.31;47.85
73457;BME280;61691;53.072;6.582;2022-12-07T22:52:00;100849.66;;;17.27;47.91
73457;BME280;61691;53.072;6.582;2022-12-07T22:54:45;100839.94;;;17.26;48.41
73457;BME280;61691;53.072;6.582;2022-12-07T22:57:31;100844.63;;;17.24;47.95
73457;BME280;61691;53.072;6.582;2022-12-07T23:00:19;100841.28;;;17.22;47.99
73457;BME280;61691;53.072;6.582;2022-12-07T23:03:05;100825.94;;;17.16;48.14
73457;BME280;61691;53.072;6.582;2022-12-07T23:05:50;100830.09;;;17.19;48.30
73457;BME280;61691;53.072;6.582;2022-12-07T23:08:36;100831.28;;;17.16;48.72
73457;BME280;61691;53.072;6.582;2022-12-07T23:11:27;100821.78;;;17.14;48.21
73457;BME280;61691;53.072;6.582;2022-12-07T23:14:33;100819.28;;;17.12;48.45
73457;BME280;61691;53.072;6.582;2022-12-07T23:17:18;100809.56;;;17.11;48.30
73457;BME280;61691;53.072;6.582;2022-12-07T23:20:05;100803.53;;;17.09;48.61
73457;BME280;61691;53.072;6.582;2022-12-07T23:22:50;100802.88;;;17.07;48.51
73457;BME280;61691;53.072;6.582;2022-12-07T23:25:35;100797.72;;;17.06;48.71
73457;BME280;61691;53.072;6.582;2022-12-07T23:28:21;100789.88;;;17.04;48.42
73457;BME280;61691;53.072;6.582;2022-12-07T23:31:15;100785.22;;;16.98;48.39
73457;BME280;61691;53.072;6.582;2022-12-07T23:34:00;100797.22;;;17.02;48.59
73457;BME280;61691;53.072;6.582;2022-12-07T23:36:46;100792.22;;;16.99;48.47
73457;BME280;61691;53.072;6.582;2022-12-07T23:39:31;100785.22;;;16.98;48.86
73457;BME280;61691;53.072;6.582;2022-12-07T23:42:17;100796.94;;;16.97;48.61
73457;BME280;61691;53.072;6.582;2022-12-07T23:45:02;100786.41;;;16.95;48.75
73457;BME280;61691;53.072;6.582;2022-12-07T23:47:48;100774.00;;;16.94;48.44
73457;BME280;61691;53.072;6.582;2022-12-07T23:50:33;100781.38;;;16.92;48.42
73457;BME280;61691;53.072;6.582;2022-12-07T23:53:19;100766.53;;;16.90;48.52
73457;BME280;61691;53.072;6.582;2022-12-07T23:56:05;100767.53;;;16.89;48.45
73457;BME280;61691;53.072;6.582;2022-12-07T23:58:52;100768.53;;;16.88;48.57
